createdAt,value
2022-08-10T00:04:50.472Z,101128.28
2022-08-10T00:09:54.571Z,101132.00
2022-08-10T00:14:57.610Z,101131.28
2022-08-10T00:20:04.129Z,101135.94
2022-08-10T00:25:12.864Z,101130.13
2022-08-10T00:30:15.633Z,101135.69
2022-08-10T00:35:18.394Z,101136.91
2022-08-10T00:40:36.964Z,101134.31
2022-08-10T00:45:40.812Z,101128.25
2022-08-10T00:50:43.616Z,101116.78
2022-08-10T00:57:10.048Z,101120.72
2022-08-10T01:01:23.505Z,101125.41
2022-08-10T01:06:42.489Z,101122.94
2022-08-10T01:12:47.588Z,101123.16
2022-08-10T01:17:21.872Z,101127.13
2022-08-10T01:22:38.904Z,101119.19
2022-08-10T01:27:55.808Z,101117.59
2022-08-10T01:33:06.416Z,101133.03
2022-08-10T01:38:14.243Z,101137.69
2022-08-10T01:43:20.547Z,101134.25
2022-08-10T01:48:32.137Z,101134.38
2022-08-10T01:53:41.593Z,101132.03
2022-08-10T01:58:47.301Z,101120.28
2022-08-10T02:04:03.702Z,101116.94
2022-08-10T02:09:10.206Z,101128.78
2022-08-10T02:14:15.880Z,101124.44
2022-08-10T02:19:24.361Z,101124.69
2022-08-10T02:24:29.440Z,101124.84
2022-08-10T02:29:33.585Z,101115.06
2022-08-10T02:34:40.258Z,101118.84
2022-08-10T02:39:43.479Z,101119.94
2022-08-10T02:45:24.706Z,101117.34
2022-08-10T02:50:25.276Z,101114.00
2022-08-10T02:55:35.644Z,101122.25
2022-08-10T03:00:43.729Z,101123.38
2022-08-10T03:05:50.246Z,101123.59
2022-08-10T03:10:55.788Z,101132.72
2022-08-10T03:16:01.759Z,101132.94
2022-08-10T03:21:11.428Z,101126.66
2022-08-10T03:26:20.301Z,101131.22
2022-08-10T03:31:23.755Z,101137.63
2022-08-10T03:36:42.599Z,101131.69
2022-08-10T03:41:53.615Z,101134.75
2022-08-10T03:47:01.111Z,101142.19
2022-08-10T03:52:06.750Z,101147.78
2022-08-10T03:57:09.884Z,101155.41
2022-08-10T04:02:46.987Z,101153.03
2022-08-10T04:07:37.392Z,101162.97
2022-08-10T04:12:40.112Z,101161.03
2022-08-10T04:17:59.507Z,101156.06
2022-08-10T04:23:10.046Z,101163.59
2022-08-10T04:28:13.076Z,101163.03
2022-08-10T04:33:21.292Z,101160.09
2022-08-10T04:38:26.682Z,101160.28
2022-08-10T04:43:29.491Z,101170.88
2022-08-10T04:48:42.019Z,101165.91
2022-08-10T04:54:04.864Z,101182.09
2022-08-10T04:59:10.630Z,101178.28
2022-08-10T05:04:36.308Z,101180.44
2022-08-10T05:10:02.067Z,101183.16
2022-08-10T05:15:00.395Z,101183.06
2022-08-10T05:20:06.801Z,101197.91
2022-08-10T05:25:13.611Z,101200.38
2022-08-10T05:30:19.239Z,101194.78
2022-08-10T05:35:22.005Z,101192.50
2022-08-10T05:40:26.937Z,101194.22
2022-08-10T05:45:29.847Z,101188.34
2022-08-10T05:50:34.623Z,101180.63
2022-08-10T05:55:38.790Z,101192.47
2022-08-10T06:00:50.281Z,101188.97
2022-08-10T06:05:55.424Z,101187.66
2022-08-10T06:12:25.526Z,101192.69
2022-08-10T06:16:26.542Z,101188.59
2022-08-10T06:21:29.631Z,101204.56
2022-08-10T06:26:33.782Z,101207.44
2022-08-10T06:31:48.984Z,101204.53
2022-08-10T06:36:54.266Z,101204.66
2022-08-10T06:42:15.995Z,101211.00
2022-08-10T06:47:23.588Z,101215.56
2022-08-10T06:52:27.282Z,101217.00
2022-08-10T06:57:35.189Z,101215.16
2022-08-10T07:02:45.052Z,101208.31
2022-08-10T07:07:49.509Z,101206.03
2022-08-10T07:12:58.774Z,101212.00
2022-08-10T07:18:03.069Z,101205.16
2022-08-10T07:23:58.394Z,101202.91
2022-08-10T07:28:34.550Z,101201.66
2022-08-10T07:33:39.720Z,101202.97
2022-08-10T07:38:44.928Z,101208.94
2022-08-10T07:43:51.891Z,101198.59
2022-08-10T07:49:00.601Z,101203.81
2022-08-10T07:54:06.099Z,101202.53
2022-08-10T07:59:12.937Z,101203.00
2022-08-10T08:04:17.591Z,101195.44
2022-08-10T08:09:22.087Z,101200.66
2022-08-10T08:14:28.267Z,101195.84
2022-08-10T08:19:38.018Z,101193.66
2022-08-10T08:24:52.474Z,101199.56
2022-08-10T08:29:57.280Z,101201.28
2022-08-10T08:35:03.408Z,101191.88
2022-08-10T08:40:10.241Z,101200.47
2022-08-10T08:45:25.212Z,101196.56
2022-08-10T08:50:37.896Z,101186.50
2022-08-10T08:56:01.421Z,101179.66
2022-08-10T09:01:24.497Z,101183.47
2022-08-10T09:08:01.079Z,101179.03
2022-08-10T09:12:48.749Z,101173.31
2022-08-10T09:18:04.080Z,101168.34
2022-08-10T09:23:15.185Z,101168.34
2022-08-10T09:28:26.565Z,101165.94
2022-08-10T09:36:28.903Z,101166.84
2022-08-10T09:40:56.505Z,101165.56
2022-08-10T09:44:58.176Z,101153.53
2022-08-10T09:50:13.508Z,101152.31
2022-08-10T09:56:17.952Z,101154.69
2022-08-10T10:00:56.569Z,101149.06
2022-08-10T10:06:09.942Z,101138.84
2022-08-10T10:11:18.986Z,101137.66
2022-08-10T10:16:43.040Z,101138.19
2022-08-10T10:21:56.805Z,101127.22
2022-08-10T10:27:04.424Z,101126.91
2022-08-10T10:32:26.966Z,101117.56
2022-08-10T10:38:01.151Z,101111.81
2022-08-10T10:43:16.833Z,101104.00
2022-08-10T10:48:28.873Z,101097.81
2022-08-10T10:53:41.189Z,101098.88
2022-08-10T10:58:54.886Z,101095.81
2022-08-10T11:04:19.389Z,101091.09
2022-08-10T11:10:05.077Z,101086.53
2022-08-10T11:14:59.595Z,101082.81
2022-08-10T11:20:12.808Z,101080.75
2022-08-10T11:25:27.356Z,101077.91
2022-08-10T11:30:37.953Z,101072.38
2022-08-10T11:35:48.172Z,101061.53
2022-08-10T11:41:14.549Z,101077.44
2022-08-10T11:46:33.078Z,101070.78
2022-08-10T11:51:44.328Z,101074.63
2022-08-10T11:56:57.277Z,101063.56
2022-08-10T12:02:07.517Z,101067.72
2022-08-10T12:10:02.210Z,101065.53
2022-08-10T12:12:42.794Z,101057.31
2022-08-10T12:17:50.874Z,101060.97
2022-08-10T12:22:58.270Z,101043.97
2022-08-10T12:28:10.183Z,101036.81
2022-08-10T12:33:22.082Z,101037.69
2022-08-10T12:38:32.248Z,101034.22
2022-08-10T12:44:05.021Z,101028.81
2022-08-10T12:49:12.708Z,101033.25
2022-08-10T12:54:32.402Z,101030.53
2022-08-10T12:59:43.455Z,101019.53
2022-08-10T13:04:50.879Z,101012.78
2022-08-10T13:09:56.244Z,101007.59
2022-08-10T13:15:45.002Z,100999.97
2022-08-10T13:20:35.272Z,100994.56
2022-08-10T13:25:43.092Z,100983.59
2022-08-10T13:30:50.666Z,100977.06
2022-08-10T13:35:58.165Z,100965.22
2022-08-10T13:41:06.002Z,100975.06
2022-08-10T13:46:22.617Z,100973.13
2022-08-10T13:51:56.359Z,100961.03
2022-08-10T13:56:53.022Z,100964.72
2022-08-10T14:02:01.782Z,100962.00
2022-08-10T14:07:05.596Z,100960.91
2022-08-10T14:12:11.338Z,100958.34
2022-08-10T14:17:19.883Z,100958.19
2022-08-10T14:22:34.188Z,100952.63
2022-08-10T14:28:01.606Z,100950.78
2022-08-10T14:33:05.247Z,100950.44
2022-08-10T14:38:13.492Z,100939.38
2022-08-10T14:43:28.846Z,100934.66
2022-08-10T14:48:39.752Z,100923.31
2022-08-10T14:53:44.106Z,100922.09
2022-08-10T14:58:58.825Z,100925.91
2022-08-10T15:04:14.843Z,100917.88
2022-08-10T15:09:20.665Z,100916.88
2022-08-10T15:14:41.233Z,100925.03
2022-08-10T15:20:02.326Z,100915.91
2022-08-10T15:25:17.616Z,100912.09
2022-08-10T15:30:29.473Z,100911.22
2022-08-10T15:35:54.526Z,100912.69
2022-08-10T15:40:59.779Z,100898.25
2022-08-10T15:46:14.602Z,100889.00
2022-08-10T15:51:28.184Z,100891.19
2022-08-10T15:56:37.369Z,100885.56
2022-08-10T16:02:14.399Z,100887.75
2022-08-10T16:07:13.347Z,100884.22
2022-08-10T16:12:29.137Z,100874.56
2022-08-10T16:17:54.556Z,100869.19
2022-08-10T16:23:03.443Z,100870.91
2022-08-10T16:28:08.404Z,100860.75
2022-08-10T16:33:15.081Z,100859.78
2022-08-10T16:38:22.338Z,100856.63
2022-08-10T16:43:25.985Z,100858.38
2022-08-10T16:48:49.373Z,100852.19
2022-08-10T16:53:56.314Z,100853.69
2022-08-10T16:59:00.575Z,100848.38
2022-08-10T17:04:10.127Z,100845.41
2022-08-10T17:09:19.877Z,100845.41
2022-08-10T17:14:25.063Z,100854.31
2022-08-10T17:19:31.251Z,100848.56
2022-08-10T17:24:41.658Z,100848.09
2022-08-10T17:29:58.887Z,100846.13
2022-08-10T17:35:10.484Z,100846.13
2022-08-10T17:40:19.643Z,100841.03
2022-08-10T17:45:46.443Z,100837.91
2022-08-10T17:50:51.091Z,100845.53
2022-08-10T17:55:58.784Z,100850.69
2022-08-10T18:01:38.788Z,100852.69
2022-08-10T18:06:28.588Z,100856.13
2022-08-10T18:11:35.686Z,100857.72
2022-08-10T18:16:43.744Z,100854.16
2022-08-10T18:21:48.970Z,100860.44
2022-08-10T18:26:55.674Z,100860.69
2022-08-10T18:32:00.916Z,100860.56
2022-08-10T18:37:08.072Z,100861.31
2022-08-10T18:42:15.993Z,100862.31
2022-08-10T18:47:26.822Z,100862.03
2022-08-10T18:52:33.629Z,100869.06
2022-08-10T18:57:51.879Z,100876.22
2022-08-10T19:03:11.273Z,100867.06
2022-08-10T19:09:47.271Z,100876.81
2022-08-10T19:14:41.157Z,100877.88
2022-08-10T19:19:52.082Z,100887.38
2022-08-10T19:25:05.788Z,100883.78
2022-08-10T19:30:14.339Z,100889.09
2022-08-10T19:35:28.665Z,100889.06
2022-08-10T19:40:44.070Z,100890.06
2022-08-10T19:46:02.614Z,100887.34
2022-08-10T19:51:14.651Z,100880.34
2022-08-10T19:56:34.002Z,100886.13
2022-08-10T20:01:56.055Z,100881.28
2022-08-10T20:07:11.081Z,100879.22
2022-08-10T20:12:20.116Z,100873.59
2022-08-10T20:17:52.332Z,100869.94
2022-08-10T20:23:05.830Z,100871.25
2022-08-10T20:28:19.444Z,100876.63
2022-08-10T20:33:32.834Z,100875.91
2022-08-10T20:38:42.582Z,100873.31
2022-08-10T20:43:59.161Z,100885.59
2022-08-10T20:49:19.050Z,100883.41
2022-08-10T20:54:23.740Z,100885.66
2022-08-10T21:00:03.777Z,100879.75
2022-08-10T21:05:17.681Z,100879.53
2022-08-10T21:10:34.501Z,100878.06
2022-08-10T21:15:55.439Z,100875.22
2022-08-10T21:21:16.653Z,100883.31
2022-08-10T21:26:29.680Z,100880.13
2022-08-10T21:31:45.863Z,100874.47
2022-08-10T21:36:56.696Z,100872.88
2022-08-10T21:42:32.393Z,100880.69
2022-08-10T21:48:17.364Z,100880.94
2022-08-10T21:53:46.760Z,100877.66
2022-08-10T21:59:12.678Z,100880.22
2022-08-10T22:04:34.832Z,100887.66
2022-08-10T22:10:04.057Z,100887.13
2022-08-10T22:16:03.868Z,100881.22
2022-08-10T22:21:26.969Z,100872.59
2022-08-10T22:27:47.069Z,100873.84
2022-08-10T22:33:06.435Z,100871.97
2022-08-10T22:38:42.002Z,100876.94
2022-08-10T22:44:03.766Z,100874.13
2022-08-10T22:49:05.982Z,100865.03
2022-08-10T22:54:33.785Z,100869.69
2022-08-10T22:59:38.059Z,100866.75
2022-08-10T23:04:48.137Z,100858.75
2022-08-10T23:10:00.773Z,100855.16
2022-08-10T23:15:26.316Z,100867.50
2022-08-10T23:20:30.994Z,100850.34
2022-08-10T23:25:43.754Z,100851.47
2022-08-10T23:31:02.646Z,100860.00
2022-08-10T23:36:32.234Z,100860.22
2022-08-10T23:41:34.358Z,100855.94
2022-08-10T23:46:40.843Z,100855.78
2022-08-10T23:51:56.421Z,100852.94
2022-08-10T23:57:02.182Z,100856.66
